Time;durP1;ratioP1;P1;durP2;ratioP2;P2;SDS_P1;SDS_P2;PMS_P1;PMS_P2;Temp;Humidity;BMP_temperature;BMP_pressure;BME280_temperature;BME280_humidity;BME280_pressure;Samples;Min_cycle;Max_cycle;Signal;HPM_P1;HPM_P2
2022/12/30 00:00:13;;;;;;;12.45;2.40;;;;;;;;;;5091335;28;20428;-61
2022/12/30 00:02:39;;;;;;;14.43;2.60;;;;;;;;;;5077304;28;20056;-61
2022/12/30 00:05:05;;;;;;;15.13;2.78;;;;;;;;;;5092254;28;20385;-61
2022/12/30 00:07:34;;;;;;;13.40;3.33;;;;;;;;;;5088342;28;20050;-61
2022/12/30 00:10:00;;;;;;;15.43;3.08;;;;;;;;;;5069196;28;20059;-61
2022/12/30 00:34:49;;;;;;;12.70;2.38;;;;;;;;;;5097711;28;20085;-61
2022/12/30 00:37:15;;;;;;;11.73;3.00;;;;;;;;;;5103748;28;20051;-61
2022/12/30 00:39:41;;;;;;;10.40;1.60;;;;;;;;;;5087395;28;20051;-61
2022/12/30 00:44:51;;;;;;;12.60;2.33;;;;;;;;;;5085994;28;20052;-61
2022/12/30 00:47:17;;;;;;;8.57;2.38;;;;;;;;;;5104200;28;20044;-61
2022/12/30 00:57:57;;;;;;;10.55;2.38;;;;;;;;;;5091619;28;20428;-61
2022/12/30 01:00:23;;;;;;;5.78;1.75;;;;;;;;;;5092877;28;20059;-61
2022/12/30 01:02:49;;;;;;;10.82;2.45;;;;;;;;;;5095353;28;20055;-61
2022/12/30 01:05:15;;;;;;;11.13;2.70;;;;;;;;;;5081037;28;20135;-61
2022/12/30 01:07:41;;;;;;;8.35;2.05;;;;;;;;;;5093819;28;20035;-61
2022/12/30 01:10:09;;;;;;;6.63;1.38;;;;;;;;;;5093550;28;20093;-61
2022/12/30 01:12:35;;;;;;;10.57;1.83;;;;;;;;;;5095440;28;20071;-61
2022/12/30 01:15:01;;;;;;;8.18;1.63;;;;;;;;;;5086511;28;20086;-61
2022/12/30 01:17:28;;;;;;;6.47;1.52;;;;;;;;;;5097161;28;20325;-61
2022/12/30 01:19:55;;;;;;;9.35;2.05;;;;;;;;;;5093951;28;20035;-61
2022/12/30 01:22:21;;;;;;;11.75;2.10;;;;;;;;;;5079546;28;20040;-61
2022/12/30 01:24:47;;;;;;;4.88;1.42;;;;;;;;;;5098297;28;20401;-61
2022/12/30 01:27:13;;;;;;;9.27;2.00;;;;;;;;;;5098196;28;20118;-61
2022/12/30 01:29:41;;;;;;;6.78;1.92;;;;;;;;;;5083868;28;20084;-61
2022/12/30 01:32:12;;;;;;;6.13;1.67;;;;;;;;;;5100891;28;20047;-61
2022/12/30 01:34:39;;;;;;;9.73;2.28;;;;;;;;;;5095063;28;20044;-61
2022/12/30 01:37:05;;;;;;;6.65;1.70;;;;;;;;;;5084648;28;20110;-61
2022/12/30 01:39:31;;;;;;;8.48;2.08;;;;;;;;;;5092532;28;20433;-61
2022/12/30 01:41:58;;;;;;;8.70;2.78;;;;;;;;;;5090318;28;20067;-61
2022/12/30 01:44:43;;;;;;;10.25;1.75;;;;;;;;;;5098992;28;20044;-61
2022/12/30 01:47:09;;;;;;;10.05;2.28;;;;;;;;;;5083503;28;20044;-61
2022/12/30 01:49:38;;;;;;;14.63;2.63;;;;;;;;;;5101273;28;20047;-61
2022/12/30 01:52:04;;;;;;;8.60;1.88;;;;;;;;;;5102819;28;20082;-61
2022/12/30 01:54:30;;;;;;;8.52;1.73;;;;;;;;;;5081389;28;20105;-61
2022/12/30 01:56:56;;;;;;;7.68;2.10;;;;;;;;;;5090881;28;20039;-61
2022/12/30 01:59:25;;;;;;;9.05;1.92;;;;;;;;;;5094190;28;20401;-61
2022/12/30 02:01:51;;;;;;;6.10;1.40;;;;;;;;;;5084810;28;20060;-61
2022/12/30 02:04:19;;;;;;;9.38;1.83;;;;;;;;;;5094073;28;20121;-61
2022/12/30 02:07:04;;;;;;;6.78;1.92;;;;;;;;;;5092355;28;20045;-61
2022/12/30 02:09:30;;;;;;;11.55;2.15;;;;;;;;;;5100083;28;20048;-61
2022/12/30 02:11:57;;;;;;;10.25;1.65;;;;;;;;;;5083392;28;20040;-61
2022/12/30 02:14:24;;;;;;;7.03;1.98;;;;;;;;;;5081762;28;20741;-61
2022/12/30 02:17:09;;;;;;;7.47;1.70;;;;;;;;;;5081378;28;20199;-61
2022/12/30 02:19:38;;;;;;;11.15;1.70;;;;;;;;;;5081176;28;20051;-61
2022/12/30 02:22:14;;;;;;;6.15;1.38;;;;;;;;;;5091434;28;20050;-61
2022/12/30 02:24:55;;;;;;;7.35;2.50;;;;;;;;;;5091794;28;20036;-61
2022/12/30 02:27:40;;;;;;;12.43;2.35;;;;;;;;;;5082631;28;20189;-61
2022/12/30 02:30:12;;;;;;;12.10;2.10;;;;;;;;;;5083847;28;20075;-61
2022/12/30 02:32:51;;;;;;;9.05;2.17;;;;;;;;;;5081010;28;20044;-61
2022/12/30 02:35:26;;;;;;;11.77;2.58;;;;;;;;;;5090305;28;20351;-61
2022/12/30 02:37:52;;;;;;;10.43;2.13;;;;;;;;;;5101872;28;20492;-61
2022/12/30 02:46:09;;;;;;;11.13;2.35;;;;;;;;;;5084463;28;20048;-61
2022/12/30 02:48:37;;;;;;;8.75;3.05;;;;;;;;;;5081561;28;20059;-61
2022/12/30 02:53:48;;;;;;;14.30;2.70;;;;;;;;;;5095531;28;20044;-61
2022/12/30 02:56:14;;;;;;;11.35;3.70;;;;;;;;;;5094978;28;20074;-61
2022/12/30 02:58:44;;;;;;;9.15;2.17;;;;;;;;;;5104199;28;20050;-61
2022/12/30 03:04:31;;;;;;;12.52;2.97;;;;;;;;;;5078280;28;20134;-61
2022/12/30 03:06:57;;;;;;;10.02;2.28;;;;;;;;;;5105021;28;20039;-61
2022/12/30 03:09:26;;;;;;;9.70;2.58;;;;;;;;;;5094296;28;20047;-61
2022/12/30 03:12:11;;;;;;;8.48;1.50;;;;;;;;;;5088785;28;20273;-61
2022/12/30 03:14:48;;;;;;;16.42;3.50;;;;;;;;;;5085888;28;20375;-61
2022/12/30 03:17:25;;;;;;;10.93;2.50;;;;;;;;;;5083355;28;20063;-61
2022/12/30 03:19:52;;;;;;;8.55;2.80;;;;;;;;;;5092968;28;20071;-61
2022/12/30 03:27:52;;;;;;;6.45;2.15;;;;;;;;;;5085712;28;20044;-63
2022/12/30 03:30:18;;;;;;;8.95;2.00;;;;;;;;;;5096672;28;20047;-61
2022/12/30 03:32:44;;;;;;;10.98;2.17;;;;;;;;;;5086655;28;20031;-61
2022/12/30 03:35:10;;;;;;;8.82;1.92;;;;;;;;;;5104740;28;20047;-61
2022/12/30 03:37:40;;;;;;;8.70;2.70;;;;;;;;;;5096498;28;20131;-61
2022/12/30 03:40:24;;;;;;;9.93;2.40;;;;;;;;;;5104528;28;20417;-61
2022/12/30 03:42:51;;;;;;;9.63;2.42;;;;;;;;;;5091389;28;20126;-61
2022/12/30 03:45:18;;;;;;;9.13;2.90;;;;;;;;;;5103451;28;20089;-61
2022/12/30 03:47:44;;;;;;;10.70;3.45;;;;;;;;;;5092393;28;20285;-61
2022/12/30 03:50:10;;;;;;;8.45;2.17;;;;;;;;;;5101141;28;20552;-61
2022/12/30 03:52:36;;;;;;;11.48;2.50;;;;;;;;;;5101001;28;20428;-61
2022/12/30 03:55:02;;;;;;;9.45;1.92;;;;;;;;;;5099313;28;20716;-61
2022/12/30 03:57:28;;;;;;;4.35;1.40;;;;;;;;;;5102955;28;20043;-61
2022/12/30 03:59:54;;;;;;;10.68;2.30;;;;;;;;;;5097929;28;20496;-61
2022/12/30 04:02:20;;;;;;;6.53;1.55;;;;;;;;;;5089247;28;20040;-61
2022/12/30 04:04:47;;;;;;;9.85;1.70;;;;;;;;;;5082131;28;20496;-61
2022/12/30 04:07:13;;;;;;;7.25;1.88;;;;;;;;;;5094689;28;20036;-61
2022/12/30 04:09:39;;;;;;;4.65;1.40;;;;;;;;;;5093880;28;20048;-61
2022/12/30 04:12:05;;;;;;;7.07;1.98;;;;;;;;;;5097964;28;20040;-62
2022/12/30 04:14:31;;;;;;;9.50;2.40;;;;;;;;;;5097115;28;20051;-61
2022/12/30 04:16:57;;;;;;;8.75;2.17;;;;;;;;;;5094203;28;20131;-62
2022/12/30 04:19:23;;;;;;;9.55;2.58;;;;;;;;;;5090385;28;20129;-61
2022/12/30 04:21:49;;;;;;;4.72;2.53;;;;;;;;;;5096009;28;20301;-61
2022/12/30 04:24:15;;;;;;;15.85;3.00;;;;;;;;;;5097048;28;20040;-61
2022/12/30 04:26:41;;;;;;;13.98;2.53;;;;;;;;;;5097331;28;20047;-61
2022/12/30 04:29:07;;;;;;;8.93;3.08;;;;;;;;;;5090118;28;20488;-61
2022/12/30 04:31:33;;;;;;;10.07;2.53;;;;;;;;;;5095979;28;20048;-61
2022/12/30 04:33:59;;;;;;;10.82;3.25;;;;;;;;;;5097293;28;20039;-61
2022/12/30 04:36:25;;;;;;;7.50;2.60;;;;;;;;;;5076536;28;20056;-61
2022/12/30 04:38:51;;;;;;;8.65;2.45;;;;;;;;;;5065269;28;20422;-61
2022/12/30 04:41:20;;;;;;;8.15;2.35;;;;;;;;;;5079381;28;20093;-61
2022/12/30 04:43:46;;;;;;;13.88;2.95;;;;;;;;;;5071874;28;20086;-61
2022/12/30 04:46:12;;;;;;;7.35;2.30;;;;;;;;;;5079152;28;20047;-61
2022/12/30 04:48:38;;;;;;;7.30;2.45;;;;;;;;;;5080172;28;20064;-61
2022/12/30 04:51:05;;;;;;;7.03;2.60;;;;;;;;;;5071159;28;20036;-61
2022/12/30 04:53:31;;;;;;;4.68;1.48;;;;;;;;;;5082521;28;20050;-61
2022/12/30 04:55:57;;;;;;;11.25;2.80;;;;;;;;;;5076101;28;20043;-61
2022/12/30 04:58:24;;;;;;;8.00;3.03;;;;;;;;;;5080848;28;20047;-61
2022/12/30 05:00:51;;;;;;;9.13;2.17;;;;;;;;;;5078036;28;20044;-61
2022/12/30 05:03:17;;;;;;;8.40;2.30;;;;;;;;;;5065355;28;20532;-61
2022/12/30 05:05:43;;;;;;;8.95;2.15;;;;;;;;;;5066351;28;20094;-61
2022/12/30 05:08:09;;;;;;;7.13;2.50;;;;;;;;;;5068522;28;20127;-61
2022/12/30 05:10:36;;;;;;;9.38;2.65;;;;;;;;;;5063721;28;20562;-61
2022/12/30 05:13:02;;;;;;;8.02;2.35;;;;;;;;;;5071913;28;20037;-61
2022/12/30 05:15:28;;;;;;;11.32;2.10;;;;;;;;;;5064882;28;20044;-61
2022/12/30 05:17:54;;;;;;;7.13;2.50;;;;;;;;;;5072712;28;20067;-61
2022/12/30 05:20:20;;;;;;;10.07;2.55;;;;;;;;;;5063894;28;20486;-61
2022/12/30 05:22:46;;;;;;;12.60;3.15;;;;;;;;;;5066195;28;20071;-61
2022/12/30 05:27:57;;;;;;;8.77;3.50;;;;;;;;;;5064903;28;20048;-61
2022/12/30 05:30:23;;;;;;;8.18;3.38;;;;;;;;;;5065376;28;20051;-61
2022/12/30 05:32:49;;;;;;;7.68;2.58;;;;;;;;;;5066784;28;20098;-61
2022/12/30 05:35:16;;;;;;;10.65;3.47;;;;;;;;;;5071173;28;20056;-61
2022/12/30 05:37:42;;;;;;;9.57;4.00;;;;;;;;;;5083675;28;20044;-61
2022/12/30 05:40:08;;;;;;;11.45;4.55;;;;;;;;;;5084122;28;20389;-61
2022/12/30 05:42:34;;;;;;;10.77;4.22;;;;;;;;;;5081379;28;20794;-61
2022/12/30 05:45:00;;;;;;;12.10;5.75;;;;;;;;;;5095004;28;20127;-61
2022/12/30 05:47:26;;;;;;;13.32;5.05;;;;;;;;;;5089153;28;20059;-61
2022/12/30 05:49:52;;;;;;;11.63;5.43;;;;;;;;;;5092465;28;20415;-61
2022/12/30 05:52:18;;;;;;;14.07;6.18;;;;;;;;;;5095843;28;20047;-61
2022/12/30 05:54:44;;;;;;;10.80;5.82;;;;;;;;;;5081893;28;20052;-61
2022/12/30 05:57:10;;;;;;;13.75;5.72;;;;;;;;;;5090377;28;20043;-61
2022/12/30 05:59:36;;;;;;;12.70;5.55;;;;;;;;;;5091484;28;20071;-61
2022/12/30 06:02:03;;;;;;;14.88;5.97;;;;;;;;;;5090192;28;20044;-61
2022/12/30 06:04:29;;;;;;;17.77;6.28;;;;;;;;;;5083695;28;20071;-61
2022/12/30 06:06:55;;;;;;;15.48;6.10;;;;;;;;;;5081765;28;20394;-61
2022/12/30 06:09:21;;;;;;;14.02;5.53;;;;;;;;;;5093558;28;20044;-61
2022/12/30 06:11:47;;;;;;;12.27;4.55;;;;;;;;;;5095531;28;20043;-61
2022/12/30 06:14:15;;;;;;;6.82;4.28;;;;;;;;;;5090832;28;20379;-61
2022/12/30 06:16:41;;;;;;;18.80;5.68;;;;;;;;;;5094494;28;20073;-61
2022/12/30 06:19:08;;;;;;;9.55;3.83;;;;;;;;;;5091454;28;20070;-61
2022/12/30 06:21:34;;;;;;;10.43;4.22;;;;;;;;;;5091176;28;21005;-61
2022/12/30 06:24:01;;;;;;;7.93;3.67;;;;;;;;;;5091535;28;20511;-61
2022/12/30 06:26:27;;;;;;;6.10;3.13;;;;;;;;;;5083788;28;20071;-61
2022/12/30 06:28:53;;;;;;;9.35;3.08;;;;;;;;;;5087328;28;20047;-61
2022/12/30 06:31:19;;;;;;;8.43;3.63;;;;;;;;;;5098319;28;20055;-62
2022/12/30 06:33:45;;;;;;;10.68;3.47;;;;;;;;;;5095262;28;20047;-62
2022/12/30 06:36:12;;;;;;;10.30;3.40;;;;;;;;;;5085455;28;20047;-62
2022/12/30 06:38:38;;;;;;;7.65;3.03;;;;;;;;;;5096863;28;20134;-62
2022/12/30 06:41:04;;;;;;;10.45;3.28;;;;;;;;;;5096904;28;20477;-62
2022/12/30 06:43:30;;;;;;;8.00;3.03;;;;;;;;;;5093729;28;20055;-62
2022/12/30 06:45:56;;;;;;;13.63;3.13;;;;;;;;;;5097994;28;20040;-60
2022/12/30 06:48:22;;;;;;;9.18;3.20;;;;;;;;;;5084128;28;20356;-59
2022/12/30 06:50:48;;;;;;;9.45;2.67;;;;;;;;;;5094182;28;20067;-59
2022/12/30 06:53:14;;;;;;;4.45;2.25;;;;;;;;;;5084369;28;20044;-60
2022/12/30 06:55:40;;;;;;;10.00;3.15;;;;;;;;;;5084188;28;20044;-62
2022/12/30 06:58:07;;;;;;;7.78;2.97;;;;;;;;;;5085800;28;20047;-62
2022/12/30 07:00:33;;;;;;;5.18;2.53;;;;;;;;;;5097449;28;20044;-62
2022/12/30 07:02:59;;;;;;;7.70;2.38;;;;;;;;;;5096208;28;20047;-62
2022/12/30 07:05:26;;;;;;;5.57;2.00;;;;;;;;;;5093248;28;20043;-60
2022/12/30 07:07:52;;;;;;;9.63;2.97;;;;;;;;;;5094288;28;20078;-60
2022/12/30 07:10:18;;;;;;;7.50;2.47;;;;;;;;;;5097003;28;20047;-60
2022/12/30 07:12:44;;;;;;;6.55;2.33;;;;;;;;;;5094273;28;20117;-60
2022/12/30 07:15:10;;;;;;;9.82;3.17;;;;;;;;;;5093912;28;20443;-60
2022/12/30 07:17:36;;;;;;;7.90;2.35;;;;;;;;;;5083571;28;20051;-60
2022/12/30 07:20:02;;;;;;;7.93;2.20;;;;;;;;;;5087598;28;20039;-60
2022/12/30 07:22:28;;;;;;;9.13;2.38;;;;;;;;;;5091969;28;20509;-60
2022/12/30 07:24:54;;;;;;;6.18;2.47;;;;;;;;;;5085531;28;20050;-60
2022/12/30 07:27:20;;;;;;;5.65;2.00;;;;;;;;;;5091470;28;20043;-60
2022/12/30 07:29:46;;;;;;;6.47;1.75;;;;;;;;;;5099519;28;20040;-60
2022/12/30 07:32:12;;;;;;;7.00;1.75;;;;;;;;;;5086356;28;20062;-60
2022/12/30 07:34:38;;;;;;;8.73;2.20;;;;;;;;;;5084351;28;20059;-60
2022/12/30 07:37:05;;;;;;;7.45;2.45;;;;;;;;;;5103463;28;20047;-60
2022/12/30 07:39:31;;;;;;;8.80;2.10;;;;;;;;;;5082213;28;20406;-60
2022/12/30 07:41:57;;;;;;;6.75;1.95;;;;;;;;;;5084442;28;20043;-60
2022/12/30 07:44:24;;;;;;;5.78;2.00;;;;;;;;;;5083694;28;20150;-60
2022/12/30 07:46:50;;;;;;;9.73;2.28;;;;;;;;;;5089950;28;20043;-61
2022/12/30 07:49:16;;;;;;;4.28;2.03;;;;;;;;;;5086516;28;20056;-60
2022/12/30 07:51:42;;;;;;;5.30;1.77;;;;;;;;;;5085579;28;20048;-60
2022/12/30 07:54:08;;;;;;;6.10;1.70;;;;;;;;;;5086219;28;20054;-60
2022/12/30 07:56:34;;;;;;;8.43;1.65;;;;;;;;;;5102553;28;20256;-60
2022/12/30 07:59:02;;;;;;;6.53;2.20;;;;;;;;;;5087358;28;20044;-60
2022/12/30 08:01:28;;;;;;;7.20;1.42;;;;;;;;;;5091237;28;20067;-60
2022/12/30 08:03:54;;;;;;;5.43;1.40;;;;;;;;;;5086871;28;20040;-60
2022/12/30 08:06:20;;;;;;;11.43;2.13;;;;;;;;;;5095828;28;20036;-60
2022/12/30 08:08:46;;;;;;;8.45;2.10;;;;;;;;;;5083067;28;20564;-60
2022/12/30 08:11:13;;;;;;;10.98;2.03;;;;;;;;;;5083123;28;20047;-60
2022/12/30 08:13:41;;;;;;;15.00;2.65;;;;;;;;;;5084789;28;20051;-60
2022/12/30 08:16:08;;;;;;;7.47;2.08;;;;;;;;;;5081819;28;20131;-60
2022/12/30 08:18:34;;;;;;;6.75;1.90;;;;;;;;;;5099670;28;20043;-60
2022/12/30 08:21:01;;;;;;;5.72;1.98;;;;;;;;;;5086449;28;20050;-60
2022/12/30 08:23:29;;;;;;;5.82;1.88;;;;;;;;;;5082981;28;20677;-60
2022/12/30 08:25:55;;;;;;;11.38;2.83;;;;;;;;;;5080926;28;20047;-60
2022/12/30 08:28:21;;;;;;;9.02;2.38;;;;;;;;;;5082778;28;20052;-60
2022/12/30 08:30:47;;;;;;;7.13;2.25;;;;;;;;;;5097287;28;20414;-60
2022/12/30 08:33:13;;;;;;;3.72;1.75;;;;;;;;;;5092570;28;20051;-60
2022/12/30 08:35:39;;;;;;;10.38;2.85;;;;;;;;;;5089467;28;20112;-60
2022/12/30 08:38:05;;;;;;;11.45;2.03;;;;;;;;;;5094840;28;20119;-60
2022/12/30 08:40:33;;;;;;;11.73;2.63;;;;;;;;;;5096106;28;20498;-61
2022/12/30 08:42:59;;;;;;;7.13;2.80;;;;;;;;;;5085134;28;20122;-60
2022/12/30 08:45:25;;;;;;;5.85;1.92;;;;;;;;;;5085881;28;20134;-60
2022/12/30 08:47:51;;;;;;;10.65;2.60;;;;;;;;;;5094392;28;20161;-60
2022/12/30 08:50:17;;;;;;;11.18;3.05;;;;;;;;;;5092499;28;20057;-60
2022/12/30 08:52:43;;;;;;;9.18;2.78;;;;;;;;;;5084723;28;20097;-60
2022/12/30 08:55:09;;;;;;;9.68;2.35;;;;;;;;;;5091988;28;20087;-62
2022/12/30 08:57:38;;;;;;;7.75;2.22;;;;;;;;;;5085322;28;20108;-61
2022/12/30 09:00:05;;;;;;;13.50;2.60;;;;;;;;;;5098208;28;20089;-61
2022/12/30 09:02:32;;;;;;;11.23;2.28;;;;;;;;;;5082205;28;20784;-62
2022/12/30 09:04:58;;;;;;;7.03;2.75;;;;;;;;;;5083059;28;20131;-66
2022/12/30 09:07:24;;;;;;;5.10;2.30;;;;;;;;;;5082442;28;20126;-60
2022/12/30 09:09:50;;;;;;;5.45;2.58;;;;;;;;;;5093308;28;20036;-60
2022/12/30 09:12:17;;;;;;;6.70;2.10;;;;;;;;;;5085707;28;20043;-60
2022/12/30 09:14:43;;;;;;;6.72;2.08;;;;;;;;;;5092446;28;20936;-60
2022/12/30 09:17:09;;;;;;;6.63;2.40;;;;;;;;;;5084101;28;20055;-60
2022/12/30 09:19:35;;;;;;;8.60;2.15;;;;;;;;;;5093423;28;20048;-60
2022/12/30 09:22:01;;;;;;;8.50;2.20;;;;;;;;;;5094262;28;20163;-60
2022/12/30 09:24:27;;;;;;;6.97;2.28;;;;;;;;;;5084243;28;20159;-60
2022/12/30 09:26:53;;;;;;;4.45;1.85;;;;;;;;;;5083940;28;20070;-60
2022/12/30 09:29:19;;;;;;;10.90;2.40;;;;;;;;;;5094305;28;20467;-60
2022/12/30 09:31:45;;;;;;;5.63;1.80;;;;;;;;;;5092039;28;20082;-60
2022/12/30 09:34:12;;;;;;;7.57;2.28;;;;;;;;;;5083806;28;20063;-61
2022/12/30 09:36:38;;;;;;;10.05;3.03;;;;;;;;;;5090698;28;20468;-61
2022/12/30 09:39:04;;;;;;;8.05;2.40;;;;;;;;;;5083795;28;20709;-60
2022/12/30 09:44:30;;;;;;;8.82;2.10;;;;;;;;;;5081586;28;20043;-60
2022/12/30 09:47:21;;;;;;;6.30;2.42;;;;;;;;;;5096934;28;20078;-61
2022/12/30 09:49:50;;;;;;;8.63;2.35;;;;;;;;;;5078921;28;20083;-60
2022/12/30 09:52:15;;;;;;;5.05;2.42;;;;;;;;;;5090015;28;20490;-61
2022/12/30 09:54:45;;;;;;;6.50;2.42;;;;;;;;;;5089235;28;20081;-60
2022/12/30 09:57:30;;;;;;;6.88;2.00;;;;;;;;;;5092546;28;20043;-60
2022/12/30 09:59:59;;;;;;;6.30;1.90;;;;;;;;;;5094310;28;20044;-60
2022/12/30 10:02:28;;;;;;;7.75;2.00;;;;;;;;;;5087731;28;20558;-60
2022/12/30 10:04:55;;;;;;;6.88;2.17;;;;;;;;;;5097597;28;20040;-61
2022/12/30 10:07:24;;;;;;;5.15;2.45;;;;;;;;;;5089406;28;20127;-61
2022/12/30 10:09:55;;;;;;;8.73;2.47;;;;;;;;;;5088400;28;20043;-60
2022/12/30 10:12:24;;;;;;;8.88;2.30;;;;;;;;;;5086382;28;20040;-61
2022/12/30 10:15:22;;;;;;;9.02;1.92;;;;;;;;;;5097707;28;20044;-60
2022/12/30 10:18:05;;;;;;;5.10;2.00;;;;;;;;;;5032040;28;20477;-61
2022/12/30 10:20:50;;;;;;;6.22;2.10;;;;;;;;;;5092528;28;20039;-61
2022/12/30 10:23:19;;;;;;;6.47;2.65;;;;;;;;;;5088831;28;20526;-61
2022/12/30 10:25:47;;;;;;;7.60;2.50;;;;;;;;;;5098399;28;20071;-60
2022/12/30 10:28:14;;;;;;;5.15;2.05;;;;;;;;;;5085460;28;20390;-60
2022/12/30 10:30:42;;;;;;;10.13;2.08;;;;;;;;;;5100535;28;20048;-60
2022/12/30 10:33:13;;;;;;;7.28;1.98;;;;;;;;;;5086286;28;20039;-60
2022/12/30 10:35:40;;;;;;;7.80;1.95;;;;;;;;;;5084467;28;20159;-60
2022/12/30 10:38:11;;;;;;;5.55;1.98;;;;;;;;;;5096187;28;20136;-61
2022/12/30 10:40:53;;;;;;;8.32;1.90;;;;;;;;;;5097155;28;20363;-61
2022/12/30 10:43:26;;;;;;;7.70;2.90;;;;;;;;;;5089170;28;20047;-60
2022/12/30 10:45:59;;;;;;;4.40;2.13;;;;;;;;;;5099644;28;20444;-61
2022/12/30 10:48:25;;;;;;;5.97;1.70;;;;;;;;;;5091538;28;20446;-61
2022/12/30 10:50:52;;;;;;;5.55;1.60;;;;;;;;;;5094901;28;20074;-61
2022/12/30 10:53:19;;;;;;;4.72;1.65;;;;;;;;;;5091702;28;20098;-61
2022/12/30 10:55:50;;;;;;;5.22;1.83;;;;;;;;;;5105459;28;20546;-60
2022/12/30 10:58:36;;;;;;;7.22;2.00;;;;;;;;;;5090676;28;20075;-61
2022/12/30 11:01:02;;;;;;;7.18;1.70;;;;;;;;;;5082604;28;20109;-61
2022/12/30 11:03:35;;;;;;;5.50;1.98;;;;;;;;;;5093070;28;20048;-61
2022/12/30 11:06:28;;;;;;;5.50;1.55;;;;;;;;;;5087826;28;20048;-61
2022/12/30 11:09:14;;;;;;;4.43;1.40;;;;;;;;;;5096887;28;20055;-61
2022/12/30 11:14:44;;;;;;;4.47;1.08;;;;;;;;;;5086662;28;20040;-61
2022/12/30 11:17:10;;;;;;;3.92;1.40;;;;;;;;;;5084372;28;20059;-61
2022/12/30 11:19:36;;;;;;;4.25;1.95;;;;;;;;;;5094845;28;20160;-61
2022/12/30 11:22:03;;;;;;;5.25;1.70;;;;;;;;;;5061404;28;20510;-64
2022/12/30 11:24:29;;;;;;;2.97;1.70;;;;;;;;;;5083439;28;20482;-61
2022/12/30 11:26:55;;;;;;;4.90;1.25;;;;;;;;;;5105227;28;20122;-60
2022/12/30 11:29:21;;;;;;;5.93;1.67;;;;;;;;;;5063512;28;20040;-60
2022/12/30 11:31:50;;;;;;;2.85;1.10;;;;;;;;;;5056719;28;21890;-60
2022/12/30 11:34:19;;;;;;;6.05;2.15;;;;;;;;;;5056618;28;20126;-60
2022/12/30 11:36:45;;;;;;;3.88;1.38;;;;;;;;;;5076179;28;20135;-61
2022/12/30 11:39:25;;;;;;;4.53;1.65;;;;;;;;;;5053945;28;20048;-60
2022/12/30 11:41:56;;;;;;;4.35;1.38;;;;;;;;;;5068215;28;20063;-60
2022/12/30 11:44:26;;;;;;;3.13;1.20;;;;;;;;;;5056524;28;20040;-60
2022/12/30 11:46:53;;;;;;;5.38;1.10;;;;;;;;;;5101311;28;20515;-60
2022/12/30 11:49:26;;;;;;;8.90;2.25;;;;;;;;;;5106871;28;20498;-60
2022/12/30 11:51:52;;;;;;;;;;;;;;;;;;5105064;28;20040;-60
2022/12/30 11:54:23;;;;;;;6.25;2.08;;;;;;;;;;5088384;28;19919;-60
2022/12/30 11:56:52;;;;;;;6.55;1.10;;;;;;;;;;5084736;28;20048;-61
2022/12/30 11:59:20;;;;;;;3.75;1.10;;;;;;;;;;5089972;28;20082;-60
2022/12/30 12:01:49;;;;;;;6.53;1.52;;;;;;;;;;5086835;28;20135;-60
2022/12/30 12:04:33;;;;;;;4.32;1.02;;;;;;;;;;5092316;28;20044;-60
2022/12/30 12:07:00;;;;;;;5.07;0.88;;;;;;;;;;5087910;28;20052;-60
2022/12/30 12:09:30;;;;;;;4.55;1.10;;;;;;;;;;5087334;28;20048;-60
2022/12/30 12:11:58;;;;;;;3.03;1.42;;;;;;;;;;5069723;28;20040;-60
2022/12/30 12:14:29;;;;;;;4.20;1.20;;;;;;;;;;5080487;28;20134;-60
2022/12/30 12:17:02;;;;;;;1.20;1.10;;;;;;;;;;5074678;28;20126;-60
2022/12/30 12:19:40;;;;;;;3.55;1.20;;;;;;;;;;5065266;28;20477;-60
2022/12/30 12:22:13;;;;;;;3.08;1.20;;;;;;;;;;5075614;28;20063;-60
2022/12/30 12:24:42;;;;;;;6.07;1.63;;;;;;;;;;5063850;28;20067;-60
2022/12/30 12:27:17;;;;;;;6.47;1.75;;;;;;;;;;5067899;28;20043;-61
2022/12/30 12:29:43;;;;;;;5.68;1.15;;;;;;;;;;5086417;28;20052;-61
2022/12/30 12:32:26;;;;;;;5.05;1.15;;;;;;;;;;5068881;28;20044;-61
2022/12/30 12:34:58;;;;;;;4.28;1.10;;;;;;;;;;5104682;28;20047;-61
2022/12/30 12:37:24;;;;;;;2.83;1.15;;;;;;;;;;5093118;28;20661;-61
2022/12/30 12:40:09;;;;;;;3.45;1.83;;;;;;;;;;5107489;28;20437;-60
2022/12/30 12:42:41;;;;;;;5.03;1.15;;;;;;;;;;5088322;28;20048;-61
2022/12/30 12:45:19;;;;;;;2.58;1.15;;;;;;;;;;5089100;28;20040;-61
2022/12/30 12:48:11;;;;;;;8.40;1.58;;;;;;;;;;5088066;28;20047;-61
2022/12/30 12:50:52;;;;;;;4.60;1.52;;;;;;;;;;5077023;28;20056;-61
2022/12/30 12:53:43;;;;;;;4.10;1.13;;;;;;;;;;5091416;28;20044;-61
2022/12/30 12:56:28;;;;;;;4.93;1.10;;;;;;;;;;5073458;28;20046;-61
2022/12/30 12:59:03;;;;;;;6.40;1.35;;;;;;;;;;5085679;28;20389;-61
2022/12/30 13:01:47;;;;;;;5.18;1.55;;;;;;;;;;5090447;28;20115;-61
2022/12/30 13:04:13;;;;;;;6.72;1.23;;;;;;;;;;5086259;28;20111;-61
2022/12/30 13:06:51;;;;;;;2.47;1.08;;;;;;;;;;5084349;28;20122;-60
2022/12/30 13:09:26;;;;;;;2.05;0.60;;;;;;;;;;5069660;28;20088;-61
2022/12/30 13:11:55;;;;;;;2.60;1.00;;;;;;;;;;5082705;28;20402;-61
2022/12/30 13:14:21;;;;;;;5.00;1.25;;;;;;;;;;5079296;28;20134;-60
2022/12/30 13:16:50;;;;;;;2.92;1.15;;;;;;;;;;5066992;28;20558;-61
2022/12/30 13:19:18;;;;;;;3.80;0.93;;;;;;;;;;5064666;28;20040;-61
2022/12/30 13:21:45;;;;;;;4.97;1.83;;;;;;;;;;5083047;28;20234;-61
2022/12/30 13:24:22;;;;;;;3.05;1.25;;;;;;;;;;5081870;28;20044;-61
2022/12/30 13:26:48;;;;;;;3.65;1.45;;;;;;;;;;5063691;28;20059;-61
2022/12/30 13:29:15;;;;;;;3.38;1.02;;;;;;;;;;5055697;28;20505;-61
2022/12/30 13:32:03;;;;;;;4.60;1.05;;;;;;;;;;5074505;28;20056;-61
2022/12/30 13:34:39;;;;;;;2.00;0.93;;;;;;;;;;5055333;28;20083;-61
2022/12/30 13:37:20;;;;;;;4.05;1.30;;;;;;;;;;5085219;28;20048;-61
2022/12/30 13:40:00;;;;;;;3.00;1.75;;;;;;;;;;5086391;28;20044;-61
2022/12/30 13:42:45;;;;;;;7.50;1.20;;;;;;;;;;5085947;28;20395;-61
2022/12/30 13:45:21;;;;;;;4.47;1.20;;;;;;;;;;5076900;28;20503;-61
2022/12/30 13:47:48;;;;;;;2.05;0.95;;;;;;;;;;5090560;28;20062;-63
2022/12/30 13:50:23;;;;;;;6.07;1.52;;;;;;;;;;5083003;28;20079;-60
2022/12/30 13:52:51;;;;;;;1.90;1.00;;;;;;;;;;5082632;28;20047;-61
2022/12/30 13:55:26;;;;;;;4.55;1.15;;;;;;;;;;5083496;28;20040;-61
2022/12/30 13:57:57;;;;;;;6.47;1.60;;;;;;;;;;5073803;28;20051;-61
2022/12/30 14:00:24;;;;;;;5.23;1.60;;;;;;;;;;5100981;28;20164;-61
2022/12/30 14:03:05;;;;;;;3.17;0.90;;;;;;;;;;5083729;28;20309;-61
2022/12/30 14:05:50;;;;;;;7.60;1.67;;;;;;;;;;5085091;28;20048;-61
2022/12/30 14:08:25;;;;;;;6.20;1.52;;;;;;;;;;5089766;28;20134;-61
2022/12/30 14:11:01;;;;;;;2.10;1.15;;;;;;;;;;5089736;28;20135;-61
2022/12/30 14:13:27;;;;;;;8.52;1.98;;;;;;;;;;5083998;28;20058;-61
2022/12/30 14:15:57;;;;;;;5.80;1.38;;;;;;;;;;5085019;28;20043;-61
2022/12/30 14:18:37;;;;;;;3.40;1.10;;;;;;;;;;5082189;28;20548;-61
2022/12/30 14:21:04;;;;;;;4.85;1.13;;;;;;;;;;5095215;28;20036;-61
2022/12/30 14:23:36;;;;;;;4.63;1.60;;;;;;;;;;5092927;28;20051;-61
2022/12/30 14:26:20;;;;;;;3.08;1.27;;;;;;;;;;5093076;28;20055;-62
2022/12/30 14:28:56;;;;;;;3.70;1.02;;;;;;;;;;5085837;28;20117;-61
2022/12/30 14:31:33;;;;;;;5.82;1.35;;;;;;;;;;5086331;28;20090;-61
2022/12/30 14:34:01;;;;;;;4.90;1.52;;;;;;;;;;5098326;28;20485;-61
2022/12/30 14:36:31;;;;;;;4.65;1.10;;;;;;;;;;5065322;28;20044;-61
2022/12/30 14:39:03;;;;;;;7.25;2.15;;;;;;;;;;5091788;28;20096;-61
2022/12/30 14:41:37;;;;;;;5.03;1.60;;;;;;;;;;5088161;28;20056;-61
2022/12/30 14:44:03;;;;;;;2.72;1.30;;;;;;;;;;5085483;28;20749;-61
2022/12/30 14:46:50;;;;;;;3.33;1.33;;;;;;;;;;5099243;28;20044;-61
2022/12/30 14:49:16;;;;;;;3.05;0.88;;;;;;;;;;5077801;28;20075;-61
2022/12/30 14:51:43;;;;;;;3.85;1.48;;;;;;;;;;5105821;28;20078;-61
2022/12/30 14:54:20;;;;;;;1.45;1.08;;;;;;;;;;5084204;28;20109;-61
2022/12/30 14:56:48;;;;;;;2.90;1.73;;;;;;;;;;5096451;28;20119;-61
2022/12/30 14:59:15;;;;;;;4.57;1.70;;;;;;;;;;5089812;28;20621;-61
2022/12/30 15:01:44;;;;;;;6.45;1.77;;;;;;;;;;5092094;28;20047;-61
2022/12/30 15:04:14;;;;;;;4.57;1.25;;;;;;;;;;5074472;28;20064;-61
2022/12/30 15:06:41;;;;;;;3.08;1.10;;;;;;;;;;5087319;28;20751;-61
2022/12/30 15:09:09;;;;;;;2.25;0.90;;;;;;;;;;5087876;28;20052;-61
2022/12/30 15:11:36;;;;;;;4.68;1.23;;;;;;;;;;5073120;28;20493;-61
2022/12/30 15:14:02;;;;;;;3.72;1.17;;;;;;;;;;5069385;28;20433;-61
2022/12/30 15:16:29;;;;;;;4.65;1.55;;;;;;;;;;5085630;28;20640;-61
2022/12/30 15:18:56;;;;;;;2.10;0.90;;;;;;;;;;5074223;28;20071;-61
2022/12/30 15:21:27;;;;;;;3.75;1.27;;;;;;;;;;5055279;28;20057;-61
2022/12/30 15:23:58;;;;;;;2.55;1.50;;;;;;;;;;5078109;28;20081;-61
2022/12/30 15:26:24;;;;;;;3.10;1.05;;;;;;;;;;5056695;28;20417;-61
2022/12/30 15:28:51;;;;;;;2.63;0.80;;;;;;;;;;5073191;28;20056;-61
2022/12/30 15:31:22;;;;;;;7.43;1.70;;;;;;;;;;5073796;28;20378;-61
2022/12/30 15:33:55;;;;;;;2.37;0.90;;;;;;;;;;5072857;28;20494;-61
2022/12/30 15:36:22;;;;;;;5.45;1.48;;;;;;;;;;5073726;28;20049;-61
2022/12/30 15:38:49;;;;;;;3.75;1.30;;;;;;;;;;5074044;28;20044;-61
2022/12/30 15:41:16;;;;;;;4.40;1.75;;;;;;;;;;5074807;28;20044;-61
2022/12/30 15:43:42;;;;;;;4.55;1.30;;;;;;;;;;5072951;28;20520;-60
2022/12/30 15:46:21;;;;;;;4.78;1.20;;;;;;;;;;5073732;28;20489;-62
2022/12/30 15:48:47;;;;;;;2.08;1.10;;;;;;;;;;5083095;28;20510;-62
2022/12/30 15:51:15;;;;;;;2.45;1.48;;;;;;;;;;5072952;28;20044;-61